Time;durP1;ratioP1;P1;durP2;ratioP2;P2;SDS_P1;SDS_P2;PMS_P1;PMS_P2;Temp;Humidity;BMP_temperature;BMP_pressure;BME280_temperature;BME280_humidity;BME280_pressure;Samples;Min_cycle;Max_cycle;Signal;HPM_P1;HPM_P2
2022/05/02 00:00:53;;;;;;;7.57;6.13;;;10.90;89.00;;;;;;4977816;28;20216;-63
2022/05/02 00:03:20;;;;;;;7.20;6.50;;;10.90;89.50;;;;;;4994404;28;20200;-63
2022/05/02 00:05:45;;;;;;;7.47;6.40;;;10.80;90.00;;;;;;5003796;28;20206;-63
2022/05/02 00:08:11;;;;;;;6.37;5.77;;;10.80;90.50;;;;;;4988049;28;20196;-63
2022/05/02 00:10:37;;;;;;;7.67;6.30;;;10.80;90.40;;;;;;5011275;28;20179;-63
2022/05/02 00:13:05;;;;;;;10.43;6.73;;;10.80;90.60;;;;;;5013278;28;20218;-63
2022/05/02 00:15:31;;;;;;;8.00;7.20;;;10.80;90.70;;;;;;5007101;28;20180;-63
2022/05/02 00:17:57;;;;;;;7.37;6.67;;;10.70;90.80;;;;;;4981051;28;20184;-63
2022/05/02 00:20:34;;;;;;;8.87;7.67;;;10.80;91.20;;;;;;4981212;28;20168;-63
2022/05/02 00:23:02;;;;;;;7.47;6.77;;;10.80;91.10;;;;;;5013788;28;20202;-63
2022/05/02 00:25:29;;;;;;;7.83;6.97;;;10.80;91.10;;;;;;5013917;28;20411;-63
2022/05/02 00:27:55;;;;;;;7.83;7.10;;;10.80;91.20;;;;;;5013187;28;20211;-63
2022/05/02 00:30:21;;;;;;;6.20;5.60;;;10.80;91.30;;;;;;5008175;28;20187;-63
2022/05/02 00:32:47;;;;;;;7.97;6.67;;;10.80;91.20;;;;;;4996899;28;20204;-63
2022/05/02 00:35:13;;;;;;;7.37;6.67;;;10.80;91.30;;;;;;5012744;28;20542;-63
2022/05/02 00:37:40;;;;;;;7.40;6.60;;;10.80;91.10;;;;;;4993899;28;20231;-64
2022/05/02 00:40:08;;;;;;;13.03;7.17;;;10.80;91.20;;;;;;4997963;28;20184;-63
2022/05/02 00:42:34;;;;;;;6.77;6.07;;;10.80;91.40;;;;;;4997647;28;20192;-63
2022/05/02 00:45:00;;;;;;;7.57;6.87;;;10.80;91.20;;;;;;5012395;28;20233;-63
2022/05/02 00:47:26;;;;;;;9.30;7.00;;;10.80;91.30;;;;;;5018223;28;20180;-63
2022/05/02 00:49:52;;;;;;;7.90;7.20;;;10.80;91.50;;;;;;5016665;28;20254;-63
2022/05/02 00:52:18;;;;;;;6.93;6.23;;;10.80;91.50;;;;;;5017136;28;20218;-63
2022/05/02 00:54:45;;;;;;;7.07;6.37;;;10.80;91.20;;;;;;5017473;28;20190;-63
2022/05/02 00:57:16;;;;;;;7.63;6.83;;;10.80;91.30;;;;;;5004431;28;20188;-63
2022/05/02 00:59:43;;;;;;;7.30;6.53;;;10.80;91.10;;;;;;5017935;28;20180;-64
2022/05/02 01:02:11;;;;;;;7.53;6.80;;;10.80;91.00;;;;;;4985686;28;20188;-64
2022/05/02 01:04:37;;;;;;;7.27;6.67;;;10.80;91.30;;;;;;4997305;28;20275;-64
2022/05/02 01:07:10;;;;;;;7.83;7.13;;;10.80;91.10;;;;;;4981359;28;20188;-64
2022/05/02 01:09:47;;;;;;;7.60;6.90;;;10.80;91.20;;;;;;4997179;28;20201;-64
2022/05/02 01:12:14;;;;;;;6.47;5.87;;;10.80;91.30;;;;;;5001977;28;20212;-65
2022/05/02 01:14:42;;;;;;;7.37;6.17;;;10.80;91.30;;;;;;4997802;28;20172;-65
2022/05/02 01:17:08;;;;;;;8.07;7.27;;;10.80;91.30;;;;;;5003843;28;20271;-64
2022/05/02 01:19:34;;;;;;;7.30;6.60;;;10.80;91.00;;;;;;4996330;28;20330;-65
2022/05/02 01:22:00;;;;;;;7.40;6.07;;;10.80;91.10;;;;;;5015525;28;20266;-65
2022/05/02 01:24:35;;;;;;;7.80;7.10;;;10.80;91.20;;;;;;5016515;28;20215;-65
2022/05/02 01:27:01;;;;;;;7.17;6.47;;;10.80;91.20;;;;;;5016059;28;20190;-65
2022/05/02 01:29:27;;;;;;;7.50;6.53;;;10.80;91.20;;;;;;5016102;28;20168;-65
2022/05/02 01:31:57;;;;;;;7.00;6.40;;;10.80;91.20;;;;;;5015223;28;20188;-65
2022/05/02 01:34:22;;;;;;;6.43;5.83;;;10.80;91.10;;;;;;5016660;28;20187;-65
2022/05/02 01:36:48;;;;;;;6.73;6.03;;;10.80;90.90;;;;;;5000395;28;20191;-65
2022/05/02 01:39:14;;;;;;;6.90;6.30;;;10.80;91.10;;;;;;5016388;28;20250;-65
2022/05/02 01:41:39;;;;;;;6.57;5.97;;;10.80;91.10;;;;;;4996564;28;20207;-65
2022/05/02 01:44:05;;;;;;;7.63;6.87;;;10.80;91.00;;;;;;4999472;28;20209;-65
2022/05/02 01:46:31;;;;;;;7.10;6.43;;;10.80;91.10;;;;;;4999629;28;20234;-65
2022/05/02 01:48:57;;;;;;;6.80;6.20;;;10.80;91.10;;;;;;4995719;28;20435;-66
2022/05/02 01:51:23;;;;;;;7.10;6.43;;;10.80;91.00;;;;;;4996333;28;20211;-66
2022/05/02 01:53:49;;;;;;;7.60;6.67;;;10.80;91.00;;;;;;4998954;28;20231;-66
2022/05/02 01:56:14;;;;;;;6.80;6.20;;;10.80;90.80;;;;;;4992675;28;20195;-66
2022/05/02 01:58:40;;;;;;;6.60;5.70;;;10.80;90.90;;;;;;4979850;28;20188;-66
2022/05/02 02:01:06;;;;;;;6.53;5.93;;;10.80;90.90;;;;;;4979792;28;20212;-66
2022/05/02 02:03:32;;;;;;;6.93;5.80;;;10.80;90.80;;;;;;4993963;28;20207;-66
2022/05/02 02:05:58;;;;;;;6.40;5.80;;;10.80;90.90;;;;;;5015622;28;20176;-66
2022/05/02 02:08:29;;;;;;;6.30;5.77;;;10.70;90.80;;;;;;4998931;28;20195;-66
2022/05/02 02:10:58;;;;;;;6.63;5.80;;;10.70;90.60;;;;;;5006844;28;20188;-66
2022/05/02 02:13:24;;;;;;;6.73;6.10;;;10.70;90.70;;;;;;5014156;28;20208;-66
2022/05/02 02:15:50;;;;;;;7.23;6.27;;;10.70;90.70;;;;;;5014486;28;20180;-66
2022/05/02 02:18:16;;;;;;;8.63;7.17;;;10.70;91.00;;;;;;5002893;28;20182;-66
2022/05/02 02:20:43;;;;;;;7.50;6.77;;;10.70;91.40;;;;;;4999318;28;20267;-66
2022/05/02 02:23:09;;;;;;;6.57;5.97;;;10.70;91.80;;;;;;5014747;28;20191;-63
2022/05/02 02:25:37;;;;;;;7.17;6.50;;;10.70;91.90;;;;;;4995608;28;20223;-63
2022/05/02 02:28:03;;;;;;;7.73;7.03;;;10.70;92.20;;;;;;4996005;28;20469;-63
2022/05/02 02:30:29;;;;;;;8.07;7.27;;;10.60;92.10;;;;;;4998631;28;20184;-63
2022/05/02 02:32:59;;;;;;;8.23;7.40;;;10.60;92.20;;;;;;5013956;28;20306;-63
2022/05/02 02:35:25;;;;;;;10.40;8.60;;;10.60;92.70;;;;;;4998088;28;20214;-64
2022/05/02 02:37:51;;;;;;;9.60;7.37;;;10.50;92.80;;;;;;4998980;28;20184;-64
2022/05/02 02:40:17;;;;;;;8.77;7.90;;;10.60;93.00;;;;;;5003138;28;20439;-62
2022/05/02 02:42:44;;;;;;;8.43;7.57;;;10.60;93.20;;;;;;5015192;28;20452;-63
2022/05/02 02:45:10;;;;;;;16.30;8.30;;;10.60;93.20;;;;;;4998631;28;20212;-64
2022/05/02 02:47:36;;;;;;;10.30;9.30;;;10.60;93.50;;;;;;4998490;28;20434;-63
2022/05/02 02:50:02;;;;;;;10.87;9.73;;;10.60;93.60;;;;;;5014963;28;20172;-63
2022/05/02 02:52:27;;;;;;;11.03;9.93;;;10.60;93.60;;;;;;5015768;28;20208;-64
2022/05/02 02:54:53;;;;;;;10.80;9.80;;;10.60;93.80;;;;;;5005600;28;20188;-64
2022/05/02 02:57:19;;;;;;;11.83;10.67;;;10.50;94.00;;;;;;5003541;28;20207;-64
2022/05/02 02:59:44;;;;;;;13.23;11.83;;;10.50;94.10;;;;;;4994761;28;20196;-64
2022/05/02 03:02:10;;;;;;;12.00;10.50;;;10.60;94.20;;;;;;4994415;28;20189;-64
2022/05/02 03:07:24;;;;;;;10.27;9.27;;;10.50;94.30;;;;;;4996143;28;20179;-64
2022/05/02 03:09:50;;;;;;;10.60;9.53;;;10.50;94.40;;;;;;4994707;28;20439;-64
2022/05/02 03:12:18;;;;;;;12.07;10.87;;;10.50;94.50;;;;;;5003233;28;20215;-64
2022/05/02 03:14:43;;;;;;;12.73;11.13;;;10.50;94.50;;;;;;5013967;28;20182;-64
2022/05/02 03:17:09;;;;;;;12.77;10.53;;;10.50;94.50;;;;;;4995723;28;20192;-64
2022/05/02 03:19:35;;;;;;;12.30;11.10;;;10.40;94.60;;;;;;4999383;28;20196;-64
2022/05/02 03:22:00;;;;;;;12.93;11.50;;;10.50;94.60;;;;;;5008339;28;20194;-64
2022/05/02 03:24:26;;;;;;;14.23;11.83;;;10.40;94.70;;;;;;5002743;28;20195;-64
2022/05/02 03:26:52;;;;;;;13.70;11.87;;;10.40;94.80;;;;;;5029907;28;20192;-64
2022/05/02 03:29:17;;;;;;;13.17;11.67;;;10.40;94.80;;;;;;5030141;28;20295;-64
2022/05/02 03:31:43;;;;;;;13.90;12.47;;;10.40;94.80;;;;;;5012897;28;20250;-64
2022/05/02 03:34:09;;;;;;;13.40;12.10;;;10.40;94.80;;;;;;4997382;28;20313;-64
2022/05/02 03:36:35;;;;;;;12.70;11.50;;;10.40;94.90;;;;;;5030127;28;20192;-64
2022/05/02 03:39:01;;;;;;;12.27;10.97;;;10.40;94.80;;;;;;5013521;28;20244;-64
2022/05/02 03:41:27;;;;;;;14.00;12.53;;;10.40;94.90;;;;;;5014049;28;20265;-64
2022/05/02 03:43:53;;;;;;;13.93;12.43;;;10.30;94.90;;;;;;4997229;28;20430;-65
2022/05/02 03:46:18;;;;;;;15.43;12.50;;;10.30;94.90;;;;;;5029791;28;20214;-65
2022/05/02 03:48:44;;;;;;;13.10;11.70;;;10.40;95.00;;;;;;5007580;28;20224;-64
2022/05/02 03:51:11;;;;;;;14.57;12.37;;;10.30;95.00;;;;;;5002699;28;20202;-64
2022/05/02 03:53:36;;;;;;;14.73;12.67;;;10.40;95.10;;;;;;5012925;28;20215;-65
2022/05/02 03:56:02;;;;;;;14.53;13.03;;;10.40;95.20;;;;;;5013838;28;20198;-64
2022/05/02 03:58:28;;;;;;;13.47;12.10;;;10.40;95.10;;;;;;5046968;28;20187;-64
2022/05/02 04:00:54;;;;;;;14.47;11.60;;;10.40;95.20;;;;;;5013527;28;20188;-65
2022/05/02 04:03:20;;;;;;;13.03;11.73;;;10.40;95.20;;;;;;5029054;28;20274;-64
2022/05/02 04:05:46;;;;;;;12.30;11.00;;;10.40;95.20;;;;;;5005212;28;20265;-64
2022/05/02 04:08:11;;;;;;;11.67;10.50;;;10.40;95.20;;;;;;5010781;28;20203;-65
2022/05/02 04:10:37;;;;;;;13.47;11.67;;;10.40;95.20;;;;;;5029609;28;20255;-65
2022/05/02 04:13:03;;;;;;;13.63;12.33;;;10.40;95.20;;;;;;5029278;28;20210;-65
2022/05/02 04:15:28;;;;;;;13.47;12.07;;;10.50;95.20;;;;;;4996436;28;20202;-65
2022/05/02 04:17:56;;;;;;;16.13;12.63;;;10.50;95.30;;;;;;5029746;28;20269;-65
2022/05/02 04:20:22;;;;;;;12.23;11.03;;;10.50;95.30;;;;;;4997336;28;20210;-65
2022/05/02 04:22:48;;;;;;;13.13;11.53;;;10.50;95.20;;;;;;4996823;28;20192;-66
2022/05/02 04:25:13;;;;;;;13.80;12.50;;;10.50;95.20;;;;;;4977446;28;20443;-65
2022/05/02 04:27:39;;;;;;;13.00;11.73;;;10.50;95.10;;;;;;4993118;28;20189;-65
2022/05/02 04:30:06;;;;;;;13.17;11.47;;;10.50;95.20;;;;;;4993856;28;20188;-64
2022/05/02 04:32:31;;;;;;;13.40;12.10;;;10.50;95.20;;;;;;4994257;28;20212;-65
2022/05/02 04:34:58;;;;;;;12.77;11.47;;;10.50;95.10;;;;;;5011485;28;20186;-65
2022/05/02 04:37:25;;;;;;;13.23;11.93;;;10.50;95.10;;;;;;5011331;28;20172;-66
2022/05/02 04:39:51;;;;;;;12.73;11.47;;;10.60;95.10;;;;;;5011438;28;20231;-65
2022/05/02 04:42:17;;;;;;;13.40;12.10;;;10.60;95.10;;;;;;5010250;28;20196;-65
2022/05/02 04:44:43;;;;;;;11.63;10.53;;;10.60;95.20;;;;;;5028367;28;20191;-65
2022/05/02 04:47:09;;;;;;;14.53;11.33;;;10.60;95.10;;;;;;5012695;28;20477;-65
2022/05/02 04:49:34;;;;;;;12.50;11.20;;;10.60;94.90;;;;;;4992872;28;20267;-66
2022/05/02 04:52:00;;;;;;;12.57;10.30;;;10.60;94.70;;;;;;5028429;28;20199;-64
2022/05/02 04:54:26;;;;;;;13.33;11.17;;;10.60;94.60;;;;;;5008136;28;20176;-64
2022/05/02 04:56:51;;;;;;;13.43;11.83;;;10.60;94.70;;;;;;4976316;28;20191;-65
2022/05/02 04:59:17;;;;;;;13.07;11.73;;;10.60;94.70;;;;;;4995674;28;20192;-64
2022/05/02 05:01:43;;;;;;;14.43;12.93;;;10.60;94.40;;;;;;4997794;28;20223;-63
2022/05/02 05:04:09;;;;;;;11.67;10.47;;;10.60;94.20;;;;;;4998268;28;20264;-64
2022/05/02 05:06:35;;;;;;;12.37;11.07;;;10.60;94.50;;;;;;4992064;28;20220;-64
2022/05/02 05:09:02;;;;;;;14.60;11.30;;;10.70;94.80;;;;;;5023685;28;20184;-65
2022/05/02 05:11:36;;;;;;;13.03;10.63;;;10.80;94.90;;;;;;4997369;28;20733;-65
2022/05/02 05:17:33;;;;;;;12.93;11.63;;;10.80;95.00;;;;;;5011068;28;20207;-64
2022/05/02 05:20:10;;;;;;;14.10;10.77;;;10.80;95.00;;;;;;5008867;28;20187;-65
2022/05/02 05:22:44;;;;;;;11.53;10.53;;;10.90;94.90;;;;;;5022307;28;20192;-64
2022/05/02 05:25:40;;;;;;;13.47;12.17;;;10.90;94.80;;;;;;5029703;28;20198;-64
2022/05/02 05:28:26;;;;;;;13.60;12.20;;;10.90;94.90;;;;;;5022515;28;20210;-65
2022/05/02 05:31:18;;;;;;;14.00;11.83;;;11.00;94.90;;;;;;5018014;28;20188;-65
2022/05/02 05:34:07;;;;;;;12.27;10.97;;;11.00;94.80;;;;;;5023808;28;20207;-64
2022/05/02 05:37:04;;;;;;;11.87;10.33;;;10.90;94.60;;;;;;5011101;28;20187;-64
2022/05/02 05:39:46;;;;;;;13.47;12.17;;;11.00;94.50;;;;;;5042385;28;20239;-65
2022/05/02 05:42:21;;;;;;;15.90;10.43;;;11.00;94.50;;;;;;5001812;28;20194;-66
2022/05/02 05:44:49;;;;;;;13.73;11.03;;;11.00;93.80;;;;;;5005027;28;20195;-64
2022/05/02 05:47:52;;;;;;;11.60;10.10;;;11.00;93.20;;;;;;5027084;28;20225;-64
2022/05/02 05:50:24;;;;;;;11.50;10.30;;;11.00;92.70;;;;;;5038666;28;20275;-65
2022/05/02 05:53:43;;;;;;;14.93;11.70;;;10.90;92.10;;;;;;4994475;28;20208;-65
2022/05/02 05:56:45;;;;;;;11.17;9.77;;;10.90;92.50;;;;;;4996578;28;20173;-65
2022/05/02 05:59:27;;;;;;;10.80;8.87;;;11.00;91.60;;;;;;5026519;28;20427;-65
2022/05/02 06:01:56;;;;;;;10.43;8.57;;;11.00;91.20;;;;;;4995244;28;20169;-65
2022/05/02 06:04:25;;;;;;;11.40;10.30;;;11.00;90.50;;;;;;4996021;28;20180;-66
2022/05/02 06:06:50;;;;;;;12.27;10.23;;;11.00;90.30;;;;;;4994633;28;20252;-65
2022/05/02 06:09:17;;;;;;;12.10;10.90;;;11.10;91.20;;;;;;5010309;28;20319;-65
2022/05/02 06:11:46;;;;;;;11.80;10.47;;;11.10;91.90;;;;;;4995233;28;20237;-65
2022/05/02 06:14:13;;;;;;;15.63;12.03;;;11.20;92.30;;;;;;5000574;28;20220;-65
2022/05/02 06:19:27;;;;;;;15.27;11.43;;;11.30;92.70;;;;;;5013737;28;20202;-65
2022/05/02 06:21:55;;;;;;;13.50;12.07;;;11.30;92.90;;;;;;5014204;28;20172;-65
2022/05/02 06:24:26;;;;;;;13.63;11.83;;;11.30;93.00;;;;;;5013991;28;20176;-65
2022/05/02 06:26:53;;;;;;;13.83;9.50;;;11.30;92.30;;;;;;5008241;28;20196;-66
2022/05/02 06:29:20;;;;;;;14.23;9.77;;;11.30;91.20;;;;;;5009884;28;20195;-65
2022/05/02 06:31:49;;;;;;;11.27;9.17;;;11.30;91.10;;;;;;4993644;28;20180;-66
2022/05/02 06:34:21;;;;;;;11.63;9.83;;;11.30;90.70;;;;;;4995000;28;20270;-65
2022/05/02 06:36:47;;;;;;;13.13;9.73;;;11.30;91.00;;;;;;5012666;28;20203;-65
2022/05/02 06:39:26;;;;;;;13.43;9.83;;;11.30;91.50;;;;;;5012880;28;20264;-65
2022/05/02 06:42:13;;;;;;;12.80;9.73;;;11.40;90.80;;;;;;4993599;28;20272;-65
2022/05/02 06:44:50;;;;;;;15.27;10.33;;;11.40;91.30;;;;;;4992951;28;20230;-65
2022/05/02 06:47:24;;;;;;;11.67;9.33;;;11.40;90.90;;;;;;4993943;28;20189;-65
2022/05/02 06:49:52;;;;;;;11.43;9.70;;;11.50;90.90;;;;;;5013758;28;20192;-65
2022/05/02 06:52:24;;;;;;;11.80;9.30;;;11.50;91.60;;;;;;5030315;28;20223;-66
2022/05/02 06:55:20;;;;;;;12.00;9.17;;;11.50;91.20;;;;;;5030066;28;20283;-65
2022/05/02 06:58:08;;;;;;;11.63;9.60;;;11.60;91.80;;;;;;4993380;28;20204;-65
2022/05/02 07:00:39;;;;;;;10.23;8.80;;;11.60;91.30;;;;;;4994242;28;20192;-65
2022/05/02 07:03:18;;;;;;;12.30;8.43;;;11.60;91.60;;;;;;4992567;28;20192;-65
2022/05/02 07:06:08;;;;;;;11.37;9.30;;;11.60;91.50;;;;;;5010220;28;20222;-65
2022/05/02 07:08:43;;;;;;;11.10;9.43;;;11.60;91.90;;;;;;4992505;28;20192;-65
2022/05/02 07:11:17;;;;;;;11.20;9.77;;;11.60;91.60;;;;;;4991902;28;20211;-65
2022/05/02 07:13:49;;;;;;;12.50;8.77;;;11.60;91.90;;;;;;4992395;28;20283;-63
2022/05/02 07:16:22;;;;;;;12.53;8.67;;;11.60;91.10;;;;;;4992461;28;20200;-63
2022/05/02 07:18:57;;;;;;;9.93;8.47;;;11.60;90.60;;;;;;5036796;28;20241;-64
2022/05/02 07:21:26;;;;;;;11.60;9.43;;;11.50;90.30;;;;;;5012048;28;20202;-64
2022/05/02 07:24:12;;;;;;;9.17;8.13;;;11.50;91.20;;;;;;5007462;28;20254;-64
2022/05/02 07:26:38;;;;;;;10.50;7.87;;;11.50;90.70;;;;;;5025039;28;20200;-64
2022/05/02 07:29:05;;;;;;;11.60;9.07;;;11.60;90.20;;;;;;5011922;28;20195;-65
2022/05/02 07:31:32;;;;;;;10.57;8.30;;;11.60;89.40;;;;;;5012705;28;20192;-65
2022/05/02 07:34:01;;;;;;;8.83;7.90;;;11.60;90.10;;;;;;5028128;28;20221;-64
2022/05/02 07:36:28;;;;;;;8.77;7.50;;;11.60;90.10;;;;;;5005672;28;20188;-64
2022/05/02 07:39:09;;;;;;;8.40;7.60;;;11.70;90.00;;;;;;4994231;28;20230;-64
2022/05/02 07:41:35;;;;;;;9.67;7.43;;;11.80;90.00;;;;;;5001568;28;20194;-64
2022/05/02 07:44:10;;;;;;;10.70;8.20;;;11.80;90.20;;;;;;4995346;28;20202;-64
2022/05/02 07:46:43;;;;;;;9.70;8.30;;;12.00;88.70;;;;;;4986997;28;20208;-64
2022/05/02 07:49:13;;;;;;;7.90;7.13;;;12.00;87.30;;;;;;4992703;28;20177;-64
2022/05/02 07:51:47;;;;;;;10.33;7.50;;;12.30;86.50;;;;;;4992156;28;20193;-64
2022/05/02 07:54:21;;;;;;;8.37;7.57;;;12.40;85.60;;;;;;4992827;28;20200;-64
2022/05/02 07:56:51;;;;;;;10.03;7.00;;;12.40;86.00;;;;;;4996974;28;20188;-64
2022/05/02 07:59:23;;;;;;;8.13;7.43;;;12.50;85.80;;;;;;5009173;28;20283;-64
2022/05/02 08:01:49;;;;;;;8.93;7.60;;;12.60;86.60;;;;;;4992423;28;20220;-64
2022/05/02 08:04:15;;;;;;;8.43;6.90;;;12.70;87.60;;;;;;4997198;28;20196;-64
2022/05/02 08:07:02;;;;;;;8.83;7.03;;;12.80;86.80;;;;;;5011915;28;20203;-64
2022/05/02 08:10:02;;;;;;;8.13;6.80;;;12.80;86.50;;;;;;5012357;28;20207;-64
2022/05/02 08:12:40;;;;;;;7.73;6.73;;;13.00;85.60;;;;;;4992366;28;20276;-64
2022/05/02 08:15:26;;;;;;;10.80;7.00;;;13.20;84.60;;;;;;4993979;28;20180;-64
2022/05/02 08:18:16;;;;;;;8.27;6.87;;;13.30;84.60;;;;;;5010601;28;20192;-64
2022/05/02 08:20:59;;;;;;;22.23;8.30;;;13.30;83.50;;;;;;5010130;28;20195;-64
2022/05/02 08:29:38;;;;;;;8.60;7.03;;;13.70;81.90;;;;;;5012859;28;20219;-64
2022/05/02 08:32:11;;;;;;;8.73;7.00;;;13.70;81.60;;;;;;5031571;28;20199;-65
2022/05/02 08:34:39;;;;;;;11.27;6.60;;;13.80;81.10;;;;;;4992227;28;20276;-65
2022/05/02 08:37:23;;;;;;;7.37;6.50;;;13.90;82.10;;;;;;4991459;28;20188;-66
2022/05/02 08:40:11;;;;;;;13.27;6.90;;;13.90;81.80;;;;;;4991025;28;20240;-64
2022/05/02 08:42:43;;;;;;;10.17;6.27;;;14.00;80.30;;;;;;4990979;28;20192;-65
2022/05/02 08:45:26;;;;;;;8.43;6.97;;;14.20;80.70;;;;;;5004043;28;20279;-65
2022/05/02 08:48:01;;;;;;;7.03;6.33;;;14.20;81.90;;;;;;5011812;28;20279;-65
2022/05/02 08:50:36;;;;;;;7.37;5.83;;;14.30;81.70;;;;;;5028387;28;20231;-65
2022/05/02 08:53:41;;;;;;;10.47;6.87;;;14.50;81.00;;;;;;4991294;28;20215;-66
2022/05/02 08:56:24;;;;;;;8.40;6.10;;;14.70;76.90;;;;;;5009284;28;20199;-66
2022/05/02 08:59:01;;;;;;;8.67;5.60;;;14.70;77.80;;;;;;5008083;28;20188;-65
2022/05/02 09:01:35;;;;;;;6.13;5.53;;;14.80;79.10;;;;;;5015680;28;20172;-65
2022/05/02 09:04:26;;;;;;;6.77;5.57;;;14.90;77.80;;;;;;5015085;28;20223;-65
2022/05/02 09:07:11;;;;;;;6.27;5.43;;;15.00;76.90;;;;;;5015283;28;20263;-66
2022/05/02 09:09:48;;;;;;;9.30;5.33;;;15.10;77.70;;;;;;5010825;28;20232;-66
2022/05/02 09:12:23;;;;;;;10.27;5.60;;;15.30;76.10;;;;;;5016429;28;20192;-65
2022/05/02 09:15:11;;;;;;;11.03;5.73;;;15.20;76.90;;;;;;5015832;28;20191;-66
2022/05/02 09:18:04;;;;;;;8.90;5.17;;;15.30;75.20;;;;;;5014510;28;20192;-64
2022/05/02 09:20:49;;;;;;;10.53;5.83;;;15.40;76.40;;;;;;5000909;28;20203;-65
2022/05/02 09:23:51;;;;;;;4.67;4.27;;;15.50;76.60;;;;;;4994677;28;20192;-65
2022/05/02 09:26:29;;;;;;;9.73;4.90;;;15.60;74.30;;;;;;4986714;28;20222;-65
2022/05/02 09:29:09;;;;;;;6.07;5.30;;;15.80;74.00;;;;;;5013972;28;20199;-65
2022/05/02 09:31:59;;;;;;;9.43;6.13;;;15.90;71.80;;;;;;5013950;28;20195;-65
2022/05/02 09:34:58;;;;;;;6.63;5.17;;;15.90;73.70;;;;;;5012348;28;20227;-65
2022/05/02 09:37:50;;;;;;;7.87;4.63;;;15.90;72.00;;;;;;5008959;28;20261;-65
2022/05/02 09:40:23;;;;;;;7.67;5.10;;;16.00;72.60;;;;;;5014217;28;20200;-65
2022/05/02 09:43:10;;;;;;;6.60;4.70;;;15.90;71.30;;;;;;5004879;28;20223;-65
2022/05/02 09:52:02;;;;;;;4.50;4.10;;;15.90;71.20;;;;;;5014701;28;20194;-66
2022/05/02 09:58:35;;;;;;;5.30;4.43;;;15.70;70.10;;;;;;5008783;28;20202;-66
2022/05/02 10:01:27;;;;;;;5.87;4.00;;;15.60;69.90;;;;;;4997346;28;20235;-66
2022/05/02 10:04:11;;;;;;;6.30;4.40;;;15.80;65.30;;;;;;5004031;28;20200;-66
2022/05/02 10:06:43;;;;;;;7.87;4.23;;;16.00;65.50;;;;;;5015495;28;20241;-66
2022/05/02 10:09:33;;;;;;;4.83;4.33;;;16.00;64.30;;;;;;5014268;28;20199;-67
2022/05/02 10:12:21;;;;;;;4.20;3.60;;;16.00;65.40;;;;;;5014314;28;20275;-67
2022/05/02 10:14:52;;;;;;;4.27;3.70;;;16.00;64.90;;;;;;5013879;28;20191;-66
2022/05/02 10:17:45;;;;;;;5.83;4.20;;;16.30;63.60;;;;;;5012206;28;20210;-66
2022/05/02 10:20:17;;;;;;;5.47;4.10;;;16.30;64.20;;;;;;5029946;28;20212;-66
2022/05/02 10:23:01;;;;;;;4.93;4.43;;;16.40;66.10;;;;;;4992977;28;20188;-66
2022/05/02 10:25:36;;;;;;;7.33;5.00;;;16.50;64.90;;;;;;4992917;28;20200;-67
2022/05/02 10:28:21;;;;;;;4.10;3.70;;;16.70;64.40;;;;;;4993166;28;20188;-66
2022/05/02 10:31:09;;;;;;;4.93;3.67;;;16.70;64.80;;;;;;5002509;28;20280;-67
2022/05/02 10:33:41;;;;;;;5.20;3.70;;;16.90;67.20;;;;;;5013748;28;20204;-66
2022/05/02 10:36:10;;;;;;;5.70;4.17;;;17.20;63.70;;;;;;5002369;28;20289;-67
2022/05/02 10:38:52;;;;;;;4.90;4.17;;;17.30;62.50;;;;;;5009563;28;20233;-66
2022/05/02 10:41:27;;;;;;;5.20;3.83;;;17.40;62.30;;;;;;5008831;28;20263;-67
2022/05/02 10:44:01;;;;;;;4.30;3.37;;;17.50;62.00;;;;;;5031170;28;20203;-67
2022/05/02 10:46:30;;;;;;;5.30;3.70;;;17.70;63.00;;;;;;5012141;28;20242;-67
2022/05/02 10:49:04;;;;;;;4.60;3.77;;;17.80;60.20;;;;;;5013924;28;20227;-68
2022/05/02 10:52:07;;;;;;;4.27;3.87;;;17.70;59.00;;;;;;5015813;28;20172;-67
2022/05/02 10:54:50;;;;;;;4.57;3.70;;;17.70;60.80;;;;;;4980097;28;20216;-67
2022/05/02 10:57:15;;;;;;;5.13;4.23;;;17.70;60.30;;;;;;5014988;28;20196;-67
2022/05/02 10:59:45;;;;;;;5.50;4.13;;;17.80;61.20;;;;;;5013037;28;20191;-65
2022/05/02 11:02:19;;;;;;;4.30;3.53;;;17.60;57.80;;;;;;5013048;28;20207;-66
2022/05/02 11:05:05;;;;;;;4.37;3.53;;;17.50;60.60;;;;;;5014877;28;20189;-66
2022/05/02 11:07:52;;;;;;;4.77;3.83;;;17.60;58.70;;;;;;5013280;28;20251;-66
2022/05/02 11:10:25;;;;;;;4.63;3.20;;;17.50;60.50;;;;;;5014623;28;20331;-67
2022/05/02 11:13:08;;;;;;;5.10;4.03;;;17.40;61.40;;;;;;5008184;28;20444;-66
2022/05/02 11:15:59;;;;;;;4.73;3.80;;;17.50;59.70;;;;;;5000921;28;20220;-67
2022/05/02 11:22:13;;;;;;;4.93;3.60;;;17.30;58.80;;;;;;5003405;28;20246;-66
2022/05/02 11:25:06;;;;;;;4.60;4.20;;;17.50;58.60;;;;;;5006868;28;20188;-66
2022/05/02 11:28:05;;;;;;;4.20;3.80;;;17.70;57.50;;;;;;4994562;28;20184;-66
2022/05/02 11:30:41;;;;;;;4.60;3.67;;;17.90;60.20;;;;;;5010694;28;20192;-61
2022/05/02 11:34:09;;;;;;;4.20;3.70;;;18.30;58.00;;;;;;5039411;28;20243;-61
2022/05/02 11:36:51;;;;;;;3.87;3.57;;;18.30;57.10;;;;;;4958102;28;20220;-66
2022/05/02 11:39:29;;;;;;;7.30;4.40;;;18.20;56.40;;;;;;4954000;28;20237;-64
2022/05/02 11:41:58;;;;;;;7.43;5.13;;;17.80;68.70;;;;;;4994654;28;20207;-63
2022/05/02 11:44:32;;;;;;;5.63;5.13;;;17.30;71.60;;;;;;5012521;28;20211;-63
2022/05/02 11:46:58;;;;;;;5.67;4.80;;;16.80;80.00;;;;;;4996760;28;20202;-63
2022/05/02 11:49:41;;;;;;;5.30;4.80;;;16.40;82.00;;;;;;5013051;28;20194;-63
2022/05/02 11:52:14;;;;;;;7.13;5.87;;;15.90;83.20;;;;;;5013101;28;20195;-63
2022/05/02 11:54:42;;;;;;;5.67;5.17;;;15.60;85.60;;;;;;5013073;28;20188;-63
2022/05/02 11:57:14;;;;;;;7.83;5.97;;;15.40;86.30;;;;;;5013176;28;20194;-62
2022/05/02 11:59:53;;;;;;;5.93;5.43;;;15.40;87.50;;;;;;5013837;28;20187;-62
2022/05/02 12:02:38;;;;;;;5.50;5.00;;;15.40;88.10;;;;;;5006628;28;20195;-62
2022/05/02 12:05:21;;;;;;;7.60;5.57;;;15.60;88.40;;;;;;5025272;28;20216;-62
2022/05/02 12:08:02;;;;;;;6.67;5.13;;;15.60;88.70;;;;;;5001696;28;20180;-62
2022/05/02 12:10:38;;;;;;;6.93;6.03;;;15.60;83.10;;;;;;5012938;28;20211;-62
2022/05/02 12:13:05;;;;;;;5.60;5.20;;;15.40;83.10;;;;;;5030200;28;20227;-63
2022/05/02 12:15:32;;;;;;;5.93;5.40;;;15.10;84.00;;;;;;5029489;28;20187;-63
2022/05/02 12:18:03;;;;;;;7.50;5.77;;;15.00;84.80;;;;;;5045083;28;20222;-63
2022/05/02 12:20:40;;;;;;;6.57;5.97;;;14.90;85.50;;;;;;5046395;28;20176;-62
2022/05/02 12:23:18;;;;;;;5.97;5.47;;;14.90;83.70;;;;;;5013496;28;20203;-62
2022/05/02 12:25:52;;;;;;;5.90;5.40;;;14.90;84.10;;;;;;5000789;28;20187;-62
2022/05/02 12:28:43;;;;;;;8.13;5.37;;;14.80;84.80;;;;;;5026561;28;20277;-62
2022/05/02 12:31:14;;;;;;;6.17;5.57;;;15.00;84.50;;;;;;4993516;28;20223;-63
2022/05/02 12:33:43;;;;;;;7.37;4.97;;;15.40;84.40;;;;;;5028559;28;20200;-63
2022/05/02 12:36:18;;;;;;;5.73;4.00;;;16.10;83.40;;;;;;4997462;28;20268;-63
2022/05/02 12:38:54;;;;;;;3.83;3.30;;;17.20;78.60;;;;;;5046812;28;20341;-63
2022/05/02 12:41:27;;;;;;;6.00;3.83;;;17.60;74.00;;;;;;5016569;28;20212;-62
2022/05/02 12:44:02;;;;;;;4.60;3.80;;;17.40;70.80;;;;;;5024732;28;20576;-63
2022/05/02 12:46:38;;;;;;;6.10;3.97;;;16.80;74.90;;;;;;5014825;28;20220;-63
2022/05/02 12:49:05;;;;;;;4.43;4.03;;;16.40;74.70;;;;;;5015868;28;20193;-63
2022/05/02 12:51:32;;;;;;;7.03;4.03;;;16.10;75.70;;;;;;5013541;28;20196;-63
2022/05/02 12:54:11;;;;;;;4.70;4.30;;;15.80;78.80;;;;;;5014222;28;20829;-63
2022/05/02 13:00:30;;;;;;;4.20;3.80;;;15.60;78.90;;;;;;5049209;28;20327;-63
2022/05/02 13:02:37;;;;;;;3.40;3.20;;;15.80;79.60;;;;;;5001015;28;20192;-63
2022/05/02 13:05:10;;;;;;;3.57;3.23;;;17.30;75.70;;;;;;5012841;28;20176;-63
2022/05/02 13:07:56;;;;;;;5.20;3.00;;;18.70;68.60;;;;;;5012118;28;20189;-64
2022/05/02 13:10:29;;;;;;;4.07;2.97;;;19.60;66.40;;;;;;4996845;28;20189;-64
2022/05/02 13:12:58;;;;;;;4.83;2.90;;;19.70;61.50;;;;;;5004941;28;20239;-64
2022/05/02 13:15:30;;;;;;;4.90;3.17;;;19.30;61.40;;;;;;5015224;28;20193;-64
2022/05/02 13:17:58;;;;;;;5.37;3.23;;;18.90;66.10;;;;;;5014053;28;20192;-64
2022/05/02 13:20:27;;;;;;;3.50;3.20;;;18.30;68.80;;;;;;5015114;28;20191;-64
2022/05/02 13:23:01;;;;;;;4.43;3.47;;;18.00;67.30;;;;;;5014806;28;20187;-64
2022/05/02 13:26:04;;;;;;;4.73;3.30;;;18.20;66.60;;;;;;5014957;28;20182;-64
2022/05/02 13:28:57;;;;;;;3.40;3.07;;;18.30;68.60;;;;;;5008640;28;20251;-64
2022/05/02 13:31:41;;;;;;;3.80;2.50;;;18.40;65.70;;;;;;5015321;28;20187;-65
2022/05/02 13:34:17;;;;;;;2.77;2.57;;;19.00;64.10;;;;;;5029015;28;20235;-64
2022/05/02 13:36:43;;;;;;;3.47;2.53;;;19.80;60.10;;;;;;5014991;28;20187;-65
2022/05/02 13:39:19;;;;;;;2.70;2.43;;;20.20;59.40;;;;;;5016402;28;20326;-63
2022/05/02 13:42:02;;;;;;;3.83;2.57;;;20.60;58.60;;;;;;5013069;28;20222;-65
2022/05/02 13:44:55;;;;;;;2.97;2.67;;;21.00;56.10;;;;;;5028914;28;20272;-65